aviador You're here:

VTPO Decoded Metar

SUKHOTHAI in THAILAND
Report Time2017-03-23 23:00:00
UTC Time2017-03-24 00:01:11
Flight Rules ifr IFR
WindCalm
Visibility2500 m
Phenomena:Mist
Clouds:Few 030 Hf
Expected CloudBase > 800 ft AGL from Temp-Dew spread
CeilingNone
Temp25°C (ISA +10)
Dew Point23°C (89% RH)
QNH1009 hPa
Density Alt1,880 ft
Elevation177 ft
Report Wrong Elevation
Raw Report
VTPO 232300Z 00000KT 2500 BR FEW030 25/23 Q1009=

Extra information for VTPO:More info

Metar Taf Metar & Taf Last 4 Metars F.Rules Stats Wind Profile Meteogram Temp Stats Airport Information Weather charts Add Link Nearby VenuesMetar ALERT Operation Metar Decoded Social comments